createdAt,value
2023-04-18T00:03:01.634Z,5.60
2023-04-18T00:08:05.327Z,5.10
2023-04-18T00:13:04.760Z,4.10
2023-04-18T00:18:22.230Z,3.90
2023-04-18T00:23:22.568Z,4.40
2023-04-18T00:28:21.901Z,6.30
2023-04-18T00:33:21.521Z,4.70
2023-04-18T00:38:24.512Z,5.60
2023-04-18T00:43:27.407Z,6.20
2023-04-18T00:48:29.234Z,4.30
2023-04-18T00:53:29.456Z,5.00
2023-04-18T00:58:29.708Z,5.80
2023-04-18T01:03:31.232Z,4.20
2023-04-18T01:08:31.039Z,5.30
2023-04-18T01:13:30.233Z,5.10
2023-04-18T01:18:31.637Z,4.10
2023-04-18T01:23:31.353Z,4.10
2023-04-18T01:28:30.742Z,6.80
2023-04-18T01:33:30.564Z,4.60
2023-04-18T01:38:30.018Z,6.50
2023-04-18T01:43:30.090Z,5.70
2023-04-18T01:48:29.444Z,5.90
2023-04-18T01:53:29.085Z,5.40
2023-04-18T01:58:28.960Z,5.40
2023-04-18T02:03:29.859Z,5.70
2023-04-18T02:08:31.109Z,6.20
2023-04-18T02:13:31.401Z,6.40
2023-04-18T02:18:30.839Z,6.40
2023-04-18T02:23:29.962Z,5.80
2023-04-18T02:28:30.626Z,6.40
2023-04-18T02:33:30.150Z,5.60
2023-04-18T02:38:29.240Z,6.90
2023-04-18T02:43:30.456Z,6.80
2023-04-18T02:48:30.952Z,6.80
2023-04-18T02:53:30.829Z,6.40
2023-04-18T02:58:30.616Z,6.70
2023-04-18T03:03:56.104Z,6.90
2023-04-18T03:09:04.342Z,6.40
2023-04-18T03:14:05.361Z,5.10
2023-04-18T03:19:14.262Z,6.50
2023-04-18T03:24:13.641Z,5.50
2023-04-18T03:29:13.874Z,6.20
2023-04-18T03:34:15.128Z,5.60
2023-04-18T03:39:15.288Z,6.60
2023-04-18T03:44:15.268Z,5.30
2023-04-18T03:49:14.781Z,6.30
2023-04-18T03:54:14.612Z,5.80
2023-04-18T03:59:15.593Z,5.80
2023-04-18T04:04:17.934Z,5.50
2023-04-18T04:09:17.684Z,7.20
2023-04-18T04:14:16.976Z,7.00
2023-04-18T04:19:18.417Z,6.20
2023-04-18T04:24:38.693Z,8.20
2023-04-18T04:29:39.777Z,5.90
2023-04-18T04:34:41.510Z,6.90
2023-04-18T04:39:44.266Z,7.10
2023-04-18T04:45:04.687Z,7.20
2023-04-18T04:50:04.429Z,5.80
2023-04-18T04:55:03.864Z,8.10
2023-04-18T05:00:03.838Z,7.90
2023-04-18T05:05:02.765Z,5.30
2023-04-18T05:10:02.351Z,5.80
2023-04-18T05:15:01.982Z,5.60
2023-04-18T05:20:01.155Z,6.30
2023-04-18T05:25:00.494Z,6.90
2023-04-18T05:29:59.674Z,7.50
2023-04-18T05:35:00.167Z,6.80
2023-04-18T05:40:00.752Z,6.90
2023-04-18T05:45:00.246Z,7.50
2023-04-18T05:49:58.980Z,7.80
2023-04-18T05:55:00.059Z,7.40
2023-04-18T05:59:59.492Z,6.00
2023-04-18T06:04:59.405Z,6.50
2023-04-18T06:09:59.278Z,8.70
2023-04-18T06:14:58.404Z,7.50
2023-04-18T06:19:57.656Z,6.60
2023-04-18T06:24:56.840Z,5.70
2023-04-18T06:29:58.411Z,6.60
2023-04-18T06:34:57.616Z,5.80
2023-04-18T06:39:56.676Z,5.90
2023-04-18T06:44:56.857Z,7.50
2023-04-18T06:49:55.918Z,7.80
2023-04-18T06:54:55.237Z,7.10
2023-04-18T06:59:54.746Z,6.70
2023-04-18T07:04:54.294Z,7.20
2023-04-18T07:09:55.219Z,7.50
2023-04-18T07:14:55.206Z,8.20
2023-04-18T07:19:54.738Z,6.80
2023-04-18T07:24:53.977Z,8.20
2023-04-18T07:29:52.897Z,7.10
2023-04-18T07:34:53.038Z,7.40
2023-04-18T07:39:52.506Z,8.60
2023-04-18T07:44:52.298Z,6.50
2023-04-18T07:49:51.305Z,7.20
2023-04-18T07:54:51.181Z,6.80
2023-04-18T07:59:53.806Z,6.30
2023-04-18T08:04:52.721Z,6.50
2023-04-18T08:09:52.050Z,6.50
2023-04-18T08:14:51.825Z,7.90
2023-04-18T08:19:52.375Z,7.20
2023-04-18T08:29:58.858Z,8.40
2023-04-18T08:34:59.299Z,7.20
2023-04-18T08:39:57.993Z,8.40
2023-04-18T08:44:58.050Z,7.70
2023-04-18T08:49:58.564Z,6.70
2023-04-18T08:54:58.915Z,6.30
2023-04-18T09:00:00.826Z,7.20
2023-04-18T09:05:00.194Z,6.70
2023-04-18T09:10:00.645Z,7.40
2023-04-18T09:15:15.095Z,7.20
2023-04-18T09:20:27.327Z,8.00
2023-04-18T09:25:35.158Z,7.70
2023-04-18T09:30:43.284Z,6.70
2023-04-18T09:35:44.534Z,7.10
2023-04-18T09:40:44.745Z,7.60
2023-04-18T09:45:45.513Z,7.10
2023-04-18T09:50:47.874Z,6.70
2023-04-18T09:55:51.332Z,8.40
2023-04-18T10:00:51.327Z,7.50
2023-04-18T10:05:51.263Z,7.20
2023-04-18T10:10:51.550Z,7.60
2023-04-18T10:15:52.528Z,6.90
2023-04-18T10:20:52.506Z,7.40
2023-04-18T10:25:57.043Z,7.60
2023-04-18T10:31:08.957Z,6.60
2023-04-18T10:36:21.669Z,5.50
2023-04-18T10:41:30.701Z,5.80
2023-04-18T10:46:32.860Z,6.20
2023-04-18T10:51:34.566Z,6.50
2023-04-18T10:56:36.037Z,6.80
2023-04-18T11:01:44.301Z,6.30
2023-04-18T11:06:55.054Z,6.00
2023-04-18T11:12:09.633Z,7.40
2023-04-18T11:17:25.167Z,6.40
2023-04-18T11:22:26.873Z,6.00
2023-04-18T11:27:31.128Z,5.60
2023-04-18T11:32:31.122Z,6.30
2023-04-18T11:37:30.732Z,5.80
2023-04-18T11:42:35.920Z,7.00
2023-04-18T11:47:37.339Z,6.90
2023-04-18T11:52:41.297Z,6.50
2023-04-18T11:57:41.354Z,6.10
2023-04-18T12:02:48.794Z,6.00
2023-04-18T12:07:50.899Z,6.20
2023-04-18T12:12:53.895Z,5.80
2023-04-18T12:22:55.288Z,4.80
2023-04-18T12:28:00.829Z,4.90
2023-04-18T12:33:02.555Z,4.20
2023-04-18T12:38:06.919Z,4.80
2023-04-18T12:43:06.789Z,5.10
2023-04-18T12:48:07.288Z,4.50
2023-04-18T12:53:07.463Z,5.00
2023-04-18T12:58:07.351Z,4.60
2023-04-18T13:03:06.881Z,4.30
2023-04-18T13:08:16.221Z,4.60
2023-04-18T13:13:17.447Z,5.20
2023-04-18T13:18:16.609Z,6.10
2023-04-18T13:23:16.990Z,4.30
2023-04-18T13:28:16.037Z,4.60
2023-04-18T13:33:15.833Z,4.10
2023-04-18T13:38:15.228Z,4.30
2023-04-18T13:43:15.711Z,3.60
2023-04-18T13:48:16.250Z,3.70
2023-04-18T13:53:18.389Z,3.80
2023-04-18T13:58:18.788Z,3.60
2023-04-18T14:03:20.671Z,3.70
2023-04-18T14:08:21.436Z,3.30
2023-04-18T14:13:22.374Z,2.90
2023-04-18T14:18:25.611Z,3.30
2023-04-18T14:23:26.015Z,3.50
2023-04-18T14:28:26.380Z,3.20
2023-04-18T14:33:28.069Z,4.90
2023-04-18T14:38:28.106Z,3.90
2023-04-18T14:43:28.552Z,3.70
2023-04-18T14:48:28.375Z,3.70
2023-04-18T14:53:28.147Z,3.50
2023-04-18T14:58:31.800Z,3.40
2023-04-18T15:03:32.093Z,3.10
2023-04-18T15:08:33.024Z,4.00
2023-04-18T15:13:33.169Z,3.50
2023-04-18T15:18:33.191Z,2.60
2023-04-18T15:23:33.052Z,2.90
2023-04-18T15:28:32.605Z,2.80
2023-04-18T15:33:32.906Z,2.40
2023-04-18T15:38:33.196Z,2.60
2023-04-18T15:43:33.217Z,2.40
2023-04-18T15:48:36.727Z,2.40
2023-04-18T15:53:35.591Z,3.30
2023-04-18T15:58:34.976Z,3.10
2023-04-18T16:03:35.216Z,3.30
2023-04-18T16:08:35.162Z,3.00
2023-04-18T16:13:38.212Z,2.80
2023-04-18T16:18:38.301Z,2.40
2023-04-18T16:23:39.414Z,2.10
2023-04-18T16:28:39.120Z,3.50
2023-04-18T16:33:38.268Z,3.50
2023-04-18T16:38:37.537Z,3.00
2023-04-18T16:43:38.209Z,3.80
2023-04-18T16:48:38.908Z,3.00
2023-04-18T16:53:38.544Z,2.90
2023-04-18T16:58:38.456Z,3.40
2023-04-18T17:03:38.023Z,3.30
2023-04-18T17:08:38.277Z,2.90
2023-04-18T17:13:37.797Z,3.10
2023-04-18T17:18:37.645Z,3.10
2023-04-18T17:23:36.823Z,2.80
2023-04-18T17:28:35.382Z,3.00
2023-04-18T17:33:34.564Z,3.70
2023-04-18T17:38:33.718Z,3.00
2023-04-18T17:43:33.400Z,3.30
2023-04-18T17:48:33.524Z,3.80
2023-04-18T17:53:33.888Z,4.30
2023-04-18T17:58:33.113Z,3.60
2023-04-18T18:03:32.148Z,3.80
2023-04-18T18:08:33.614Z,3.90
2023-04-18T18:13:33.493Z,3.20
2023-04-18T18:18:33.038Z,3.50
2023-04-18T18:23:32.653Z,3.60
2023-04-18T18:28:31.355Z,4.10
2023-04-18T18:33:31.381Z,3.50
2023-04-18T18:38:30.750Z,3.70
2023-04-18T18:43:29.990Z,3.40
2023-04-18T18:48:30.498Z,3.70
2023-04-18T18:53:30.240Z,3.60
2023-04-18T18:58:29.665Z,3.40
2023-04-18T19:03:29.856Z,4.20
2023-04-18T19:08:29.447Z,3.70
2023-04-18T19:13:28.905Z,3.70
2023-04-18T19:18:28.005Z,3.70
2023-04-18T19:23:28.087Z,3.60
2023-04-18T19:28:28.609Z,3.70
2023-04-18T19:33:28.263Z,3.50
2023-04-18T19:38:27.884Z,3.30
2023-04-18T19:43:26.926Z,3.60
2023-04-18T19:48:27.088Z,3.30
2023-04-18T19:53:27.033Z,3.10
2023-04-18T19:58:46.794Z,2.80
2023-04-18T20:03:47.318Z,3.30
2023-04-18T20:08:47.420Z,2.80
2023-04-18T20:13:47.320Z,3.30
2023-04-18T20:18:47.620Z,3.00
2023-04-18T20:23:47.658Z,2.90
2023-04-18T20:28:46.826Z,3.40
2023-04-18T20:33:46.850Z,3.40
2023-04-18T20:38:46.502Z,3.10
2023-04-18T20:43:47.242Z,3.30
2023-04-18T20:48:46.880Z,3.30
2023-04-18T20:53:46.570Z,3.40
2023-04-18T20:58:45.933Z,4.20
2023-04-18T21:03:45.231Z,3.40
2023-04-18T21:08:44.960Z,3.40
2023-04-18T21:13:44.951Z,4.20
2023-04-18T21:18:44.240Z,4.20
2023-04-18T21:23:47.943Z,3.80
2023-04-18T21:29:01.768Z,3.90
2023-04-18T21:34:01.855Z,4.00
2023-04-18T21:39:02.468Z,3.50
2023-04-18T21:44:01.498Z,3.50
2023-04-18T21:49:00.176Z,3.10
2023-04-18T21:53:59.668Z,3.80
2023-04-18T21:58:59.360Z,2.50
2023-04-18T22:03:58.931Z,3.00
2023-04-18T22:08:58.874Z,3.20
2023-04-18T22:14:00.537Z,3.10
2023-04-18T22:19:01.382Z,2.70
2023-04-18T22:24:01.507Z,3.40
2023-04-18T22:29:00.744Z,3.30
2023-04-18T22:34:00.633Z,3.10
2023-04-18T22:38:59.947Z,3.10
2023-04-18T22:43:59.774Z,2.50
2023-04-18T22:49:00.121Z,2.50
2023-04-18T22:54:00.846Z,2.70
2023-04-18T22:59:00.229Z,2.70
2023-04-18T23:03:59.977Z,2.50
2023-04-18T23:08:59.739Z,2.20
2023-04-18T23:14:03.372Z,3.10
2023-04-18T23:19:04.225Z,1.90
2023-04-18T23:24:04.008Z,2.40
2023-04-18T23:29:03.243Z,1.80
2023-04-18T23:34:03.720Z,2.00
2023-04-18T23:39:05.526Z,1.30
2023-04-18T23:44:07.184Z,1.80
2023-04-18T23:49:06.382Z,2.00
2023-04-18T23:54:07.676Z,1.50
2023-04-18T23:59:08.619Z,1.50
